sensor_id;sensor_type;location;lat;lon;timestamp;temperature;humidity
5786;DHT22;2919;48.630;9.000;2023-04-01T00:00:47;6.80;99.90
5786;DHT22;2919;48.630;9.000;2023-04-01T00:03:13;6.90;99.90
5786;DHT22;2919;48.630;9.000;2023-04-01T00:05:38;6.90;99.90
5786;DHT22;2919;48.630;9.000;2023-04-01T00:08:04;6.90;99.90
5786;DHT22;2919;48.630;9.000;2023-04-01T00:10:30;6.90;99.90
5786;DHT22;2919;48.630;9.000;2023-04-01T00:12:56;6.90;99.90
5786;DHT22;2919;48.630;9.000;2023-04-01T00:15:22;6.90;99.90
5786;DHT22;2919;48.630;9.000;2023-04-01T00:17:47;6.80;99.90
5786;DHT22;2919;48.630;9.000;2023-04-01T00:20:14;6.90;99.90
5786;DHT22;2919;48.630;9.000;2023-04-01T00:22:40;6.90;99.90
5786;DHT22;2919;48.630;9.000;2023-04-01T00:25:06;6.80;99.90
5786;DHT22;2919;48.630;9.000;2023-04-01T00:27:32;6.80;99.90
5786;DHT22;2919;48.630;9.000;2023-04-01T00:29:57;6.80;99.90
5786;DHT22;2919;48.630;9.000;2023-04-01T00:32:23;6.80;99.90
5786;DHT22;2919;48.630;9.000;2023-04-01T00:34:52;6.80;99.90
5786;DHT22;2919;48.630;9.000;2023-04-01T00:37:19;6.80;99.90
5786;DHT22;2919;48.630;9.000;2023-04-01T00:39:44;6.80;99.90
5786;DHT22;2919;48.630;9.000;2023-04-01T00:42:11;6.90;99.90
5786;DHT22;2919;48.630;9.000;2023-04-01T00:44:38;6.80;99.90
5786;DHT22;2919;48.630;9.000;2023-04-01T00:47:04;6.80;99.90
5786;DHT22;2919;48.630;9.000;2023-04-01T00:49:39;6.90;99.90
5786;DHT22;2919;48.630;9.000;2023-04-01T00:52:07;6.90;99.90
5786;DHT22;2919;48.630;9.000;2023-04-01T00:54:35;6.90;99.90
5786;DHT22;2919;48.630;9.000;2023-04-01T00:57:34;6.90;99.90
5786;DHT22;2919;48.630;9.000;2023-04-01T00:59:54;6.80;99.90
5786;DHT22;2919;48.630;9.000;2023-04-01T01:02:20;6.80;99.90
5786;DHT22;2919;48.630;9.000;2023-04-01T01:04:46;6.80;99.90
5786;DHT22;2919;48.630;9.000;2023-04-01T01:07:16;6.80;99.90
5786;DHT22;2919;48.630;9.000;2023-04-01T01:12:32;6.80;99.90
5786;DHT22;2919;48.630;9.000;2023-04-01T01:29:33;6.80;99.90
5786;DHT22;2919;48.630;9.000;2023-04-01T01:35:22;6.80;99.90
5786;DHT22;2919;48.630;9.000;2023-04-01T01:37:59;6.80;99.90
5786;DHT22;2919;48.630;9.000;2023-04-01T01:40:27;6.80;99.90
5786;DHT22;2919;48.630;9.000;2023-04-01T01:42:57;6.80;99.90
5786;DHT22;2919;48.630;9.000;2023-04-01T01:45:26;6.80;99.90
5786;DHT22;2919;48.630;9.000;2023-04-01T01:47:54;6.70;99.90
5786;DHT22;2919;48.630;9.000;2023-04-01T01:50:21;6.70;99.90
5786;DHT22;2919;48.630;9.000;2023-04-01T01:52:47;6.70;99.90
5786;DHT22;2919;48.630;9.000;2023-04-01T01:55:35;6.70;99.90
5786;DHT22;2919;48.630;9.000;2023-04-01T02:00:34;6.70;99.90
5786;DHT22;2919;48.630;9.000;2023-04-01T02:03:00;6.60;99.90
5786;DHT22;2919;48.630;9.000;2023-04-01T02:05:27;6.60;99.90
5786;DHT22;2919;48.630;9.000;2023-04-01T02:08:02;6.50;99.90
5786;DHT22;2919;48.630;9.000;2023-04-01T02:10:33;6.60;99.90
5786;DHT22;2919;48.630;9.000;2023-04-01T02:13:05;6.60;99.90
5786;DHT22;2919;48.630;9.000;2023-04-01T02:15:36;6.60;99.90
5786;DHT22;2919;48.630;9.000;2023-04-01T02:18:03;6.60;99.90
5786;DHT22;2919;48.630;9.000;2023-04-01T02:20:30;6.50;99.90
5786;DHT22;2919;48.630;9.000;2023-04-01T02:22:57;6.50;99.90
5786;DHT22;2919;48.630;9.000;2023-04-01T02:25:30;6.50;99.90
5786;DHT22;2919;48.630;9.000;2023-04-01T02:28:00;6.50;99.90
5786;DHT22;2919;48.630;9.000;2023-04-01T02:30:28;6.50;99.90
5786;DHT22;2919;48.630;9.000;2023-04-01T02:32:56;6.50;99.90
5786;DHT22;2919;48.630;9.000;2023-04-01T02:35:22;6.50;99.90
5786;DHT22;2919;48.630;9.000;2023-04-01T02:37:49;6.50;99.90
5786;DHT22;2919;48.630;9.000;2023-04-01T02:40:16;6.50;99.90
5786;DHT22;2919;48.630;9.000;2023-04-01T02:42:42;6.50;99.90
5786;DHT22;2919;48.630;9.000;2023-04-01T02:45:09;6.50;99.90
5786;DHT22;2919;48.630;9.000;2023-04-01T02:47:34;6.40;99.90
5786;DHT22;2919;48.630;9.000;2023-04-01T02:50:00;6.40;99.90
5786;DHT22;2919;48.630;9.000;2023-04-01T02:52:29;6.40;99.90
5786;DHT22;2919;48.630;9.000;2023-04-01T02:54:55;6.40;99.90
5786;DHT22;2919;48.630;9.000;2023-04-01T02:57:21;6.40;99.90
5786;DHT22;2919;48.630;9.000;2023-04-01T02:59:47;6.40;99.90
5786;DHT22;2919;48.630;9.000;2023-04-01T03:02:13;6.40;99.90
5786;DHT22;2919;48.630;9.000;2023-04-01T03:04:40;6.30;99.90
5786;DHT22;2919;48.630;9.000;2023-04-01T03:07:05;6.30;99.90
5786;DHT22;2919;48.630;9.000;2023-04-01T03:09:31;6.30;99.90
5786;DHT22;2919;48.630;9.000;2023-04-01T03:11:57;6.20;99.90
5786;DHT22;2919;48.630;9.000;2023-04-01T03:14:22;6.20;99.90
5786;DHT22;2919;48.630;9.000;2023-04-01T03:16:48;6.20;99.90
5786;DHT22;2919;48.630;9.000;2023-04-01T03:19:14;6.20;99.90
5786;DHT22;2919;48.630;9.000;2023-04-01T03:21:40;6.20;99.90
5786;DHT22;2919;48.630;9.000;2023-04-01T03:24:06;6.10;99.90
5786;DHT22;2919;48.630;9.000;2023-04-01T03:26:33;6.10;99.90
5786;DHT22;2919;48.630;9.000;2023-04-01T03:28:59;6.10;99.90
5786;DHT22;2919;48.630;9.000;2023-04-01T03:31:25;6.10;99.90
5786;DHT22;2919;48.630;9.000;2023-04-01T03:33:50;6.10;99.90
5786;DHT22;2919;48.630;9.000;2023-04-01T03:36:16;6.10;99.90
5786;DHT22;2919;48.630;9.000;2023-04-01T03:38:43;6.10;99.90
5786;DHT22;2919;48.630;9.000;2023-04-01T03:41:16;6.10;99.90
5786;DHT22;2919;48.630;9.000;2023-04-01T03:43:42;6.10;99.90
5786;DHT22;2919;48.630;9.000;2023-04-01T03:46:08;6.10;99.90
5786;DHT22;2919;48.630;9.000;2023-04-01T03:48:34;6.10;99.90
5786;DHT22;2919;48.630;9.000;2023-04-01T03:51:00;6.10;99.90
5786;DHT22;2919;48.630;9.000;2023-04-01T03:53:26;6.10;99.90
5786;DHT22;2919;48.630;9.000;2023-04-01T03:55:52;6.10;99.90
5786;DHT22;2919;48.630;9.000;2023-04-01T03:58:18;6.10;99.90
5786;DHT22;2919;48.630;9.000;2023-04-01T04:00:43;6.10;99.90
5786;DHT22;2919;48.630;9.000;2023-04-01T04:03:09;6.00;99.90
5786;DHT22;2919;48.630;9.000;2023-04-01T04:05:35;6.00;99.90
5786;DHT22;2919;48.630;9.000;2023-04-01T04:08:01;6.00;99.90
5786;DHT22;2919;48.630;9.000;2023-04-01T04:10:26;5.90;99.90
5786;DHT22;2919;48.630;9.000;2023-04-01T04:12:52;5.90;99.90
5786;DHT22;2919;48.630;9.000;2023-04-01T04:15:18;5.80;99.90
5786;DHT22;2919;48.630;9.000;2023-04-01T04:17:45;5.80;99.90
5786;DHT22;2919;48.630;9.000;2023-04-01T04:20:11;5.80;99.90
5786;DHT22;2919;48.630;9.000;2023-04-01T04:22:37;5.80;99.90
5786;DHT22;2919;48.630;9.000;2023-04-01T04:25:02;5.80;99.90
5786;DHT22;2919;48.630;9.000;2023-04-01T04:27:28;5.80;99.90
5786;DHT22;2919;48.630;9.000;2023-04-01T04:29:54;5.80;99.90
5786;DHT22;2919;48.630;9.000;2023-04-01T04:32:19;5.80;99.90
5786;DHT22;2919;48.630;9.000;2023-04-01T04:34:45;5.80;99.90
5786;DHT22;2919;48.630;9.000;2023-04-01T04:37:11;5.80;99.90
5786;DHT22;2919;48.630;9.000;2023-04-01T04:39:36;5.80;99.90
5786;DHT22;2919;48.630;9.000;2023-04-01T04:42:02;5.80;99.90
5786;DHT22;2919;48.630;9.000;2023-04-01T04:44:28;5.90;99.90
5786;DHT22;2919;48.630;9.000;2023-04-01T04:46:53;6.00;99.90
5786;DHT22;2919;48.630;9.000;2023-04-01T04:49:19;6.00;99.90
5786;DHT22;2919;48.630;9.000;2023-04-01T04:51:44;6.20;99.90
5786;DHT22;2919;48.630;9.000;2023-04-01T04:54:10;6.10;99.90
5786;DHT22;2919;48.630;9.000;2023-04-01T04:56:36;6.20;99.90
5786;DHT22;2919;48.630;9.000;2023-04-01T04:59:02;6.20;99.90
5786;DHT22;2919;48.630;9.000;2023-04-01T05:01:27;6.30;99.90
5786;DHT22;2919;48.630;9.000;2023-04-01T05:03:53;6.30;99.90
5786;DHT22;2919;48.630;9.000;2023-04-01T05:06:19;6.30;99.90
5786;DHT22;2919;48.630;9.000;2023-04-01T05:08:45;6.30;99.90
5786;DHT22;2919;48.630;9.000;2023-04-01T05:11:16;6.40;99.90
5786;DHT22;2919;48.630;9.000;2023-04-01T05:13:42;6.40;99.90
5786;DHT22;2919;48.630;9.000;2023-04-01T05:16:14;6.40;99.90
5786;DHT22;2919;48.630;9.000;2023-04-01T05:18:41;6.40;99.90
5786;DHT22;2919;48.630;9.000;2023-04-01T05:21:08;6.50;99.90
5786;DHT22;2919;48.630;9.000;2023-04-01T05:23:35;6.50;99.90
5786;DHT22;2919;48.630;9.000;2023-04-01T05:26:08;6.50;99.90
5786;DHT22;2919;48.630;9.000;2023-04-01T05:28:34;6.50;99.90
5786;DHT22;2919;48.630;9.000;2023-04-01T05:31:00;6.60;99.90
5786;DHT22;2919;48.630;9.000;2023-04-01T05:33:27;6.60;99.90
5786;DHT22;2919;48.630;9.000;2023-04-01T05:35:53;6.60;99.90
5786;DHT22;2919;48.630;9.000;2023-04-01T05:38:19;6.60;99.90
5786;DHT22;2919;48.630;9.000;2023-04-01T05:40:45;6.70;99.90
5786;DHT22;2919;48.630;9.000;2023-04-01T05:43:11;6.70;99.90
5786;DHT22;2919;48.630;9.000;2023-04-01T05:45:36;6.70;99.90
5786;DHT22;2919;48.630;9.000;2023-04-01T05:48:03;6.70;99.90
5786;DHT22;2919;48.630;9.000;2023-04-01T05:50:30;6.70;99.90
5786;DHT22;2919;48.630;9.000;2023-04-01T05:52:56;6.70;99.90
5786;DHT22;2919;48.630;9.000;2023-04-01T05:55:21;6.70;99.90
5786;DHT22;2919;48.630;9.000;2023-04-01T05:57:47;6.80;99.90
5786;DHT22;2919;48.630;9.000;2023-04-01T06:00:15;6.80;99.90
5786;DHT22;2919;48.630;9.000;2023-04-01T06:02:41;6.80;99.90
5786;DHT22;2919;48.630;9.000;2023-04-01T06:07:45;6.90;99.90
5786;DHT22;2919;48.630;9.000;2023-04-01T06:10:15;6.90;99.90
5786;DHT22;2919;48.630;9.000;2023-04-01T06:31:05;7.10;99.90
5786;DHT22;2919;48.630;9.000;2023-04-01T06:42:06;7.10;99.90
5786;DHT22;2919;48.630;9.000;2023-04-01T06:44:55;7.10;99.90
5786;DHT22;2919;48.630;9.000;2023-04-01T06:55:15;7.10;99.90
5786;DHT22;2919;48.630;9.000;2023-04-01T06:57:45;7.20;99.90
5786;DHT22;2919;48.630;9.000;2023-04-01T07:00:32;7.20;99.90
5786;DHT22;2919;48.630;9.000;2023-04-01T07:03:19;7.20;99.90
5786;DHT22;2919;48.630;9.000;2023-04-01T07:05:45;7.30;99.90
5786;DHT22;2919;48.630;9.000;2023-04-01T07:08:21;7.30;99.90
5786;DHT22;2919;48.630;9.000;2023-04-01T07:11:06;7.30;99.90
5786;DHT22;2919;48.630;9.000;2023-04-01T07:13:54;7.30;99.90
5786;DHT22;2919;48.630;9.000;2023-04-01T07:21:54;7.30;99.90
5786;DHT22;2919;48.630;9.000;2023-04-01T07:24:27;7.30;99.90
5786;DHT22;2919;48.630;9.000;2023-04-01T07:26:56;7.40;99.90
5786;DHT22;2919;48.630;9.000;2023-04-01T07:29:23;7.40;99.90
5786;DHT22;2919;48.630;9.000;2023-04-01T07:40:32;7.50;99.90
5786;DHT22;2919;48.630;9.000;2023-04-01T07:46:13;7.50;99.90
5786;DHT22;2919;48.630;9.000;2023-04-01T08:07:07;7.70;99.90
5786;DHT22;2919;48.630;9.000;2023-04-01T08:09:53;7.70;99.90
5786;DHT22;2919;48.630;9.000;2023-04-01T08:17:53;7.80;99.90
5786;DHT22;2919;48.630;9.000;2023-04-01T08:29:06;7.80;99.90
5786;DHT22;2919;48.630;9.000;2023-04-01T08:32:03;7.70;99.90
5786;DHT22;2919;48.630;9.000;2023-04-01T08:34:36;7.70;99.90
5786;DHT22;2919;48.630;9.000;2023-04-01T08:37:08;7.70;99.90
5786;DHT22;2919;48.630;9.000;2023-04-01T08:39:48;7.60;99.90
5786;DHT22;2919;48.630;9.000;2023-04-01T08:48:07;7.40;99.90
5786;DHT22;2919;48.630;9.000;2023-04-01T08:56:41;7.30;99.90
5786;DHT22;2919;48.630;9.000;2023-04-01T09:09:53;8.20;99.90
5786;DHT22;2919;48.630;9.000;2023-04-01T09:18:06;8.50;99.90
5786;DHT22;2919;48.630;9.000;2023-04-01T09:34:27;8.30;99.90
5786;DHT22;2919;48.630;9.000;2023-04-01T09:37:17;8.30;99.90
5786;DHT22;2919;48.630;9.000;2023-04-01T09:53:07;8.20;99.90
5786;DHT22;2919;48.630;9.000;2023-04-01T09:58:20;8.10;99.90
5786;DHT22;2919;48.630;9.000;2023-04-01T10:01:03;8.10;99.90
5786;DHT22;2919;48.630;9.000;2023-04-01T10:12:42;7.90;99.90
5786;DHT22;2919;48.630;9.000;2023-04-01T10:18:41;8.10;99.90
5786;DHT22;2919;48.630;9.000;2023-04-01T10:40:35;8.70;99.90
5786;DHT22;2919;48.630;9.000;2023-04-01T10:45:57;8.90;99.90
5786;DHT22;2919;48.630;9.000;2023-04-01T10:48:49;9.20;99.90
5786;DHT22;2919;48.630;9.000;2023-04-01T10:56:40;9.00;99.90
5786;DHT22;2919;48.630;9.000;2023-04-01T11:13:17;9.20;99.90
5786;DHT22;2919;48.630;9.000;2023-04-01T11:21:16;9.30;99.90
5786;DHT22;2919;48.630;9.000;2023-04-01T11:23:58;9.50;99.90
5786;DHT22;2919;48.630;9.000;2023-04-01T11:31:47;9.40;99.90
5786;DHT22;2919;48.630;9.000;2023-04-01T11:37:09;9.50;99.90
5786;DHT22;2919;48.630;9.000;2023-04-01T11:51:15;9.80;99.90
5786;DHT22;2919;48.630;9.000;2023-04-01T11:56:47;9.70;99.90
5786;DHT22;2919;48.630;9.000;2023-04-01T12:01:54;9.80;99.90
5786;DHT22;2919;48.630;9.000;2023-04-01T12:12:48;10.00;99.90
5786;DHT22;2919;48.630;9.000;2023-04-01T12:23:15;10.30;99.90
5786;DHT22;2919;48.630;9.000;2023-04-01T12:36:18;9.70;99.90
5786;DHT22;2919;48.630;9.000;2023-04-01T12:51:47;10.20;99.90
5786;DHT22;2919;48.630;9.000;2023-04-01T13:02:46;10.70;99.90
5786;DHT22;2919;48.630;9.000;2023-04-01T13:08:04;10.60;99.90
5786;DHT22;2919;48.630;9.000;2023-04-01T13:10:43;10.50;99.90
5786;DHT22;2919;48.630;9.000;2023-04-01T13:22:13;10.50;99.90
5786;DHT22;2919;48.630;9.000;2023-04-01T13:27:56;10.30;99.90
5786;DHT22;2919;48.630;9.000;2023-04-01T13:30:43;10.40;99.90
5786;DHT22;2919;48.630;9.000;2023-04-01T13:34:14;10.30;99.90
5786;DHT22;2919;48.630;9.000;2023-04-01T13:36:38;10.30;99.90
5786;DHT22;2919;48.630;9.000;2023-04-01T13:42:14;10.40;99.90
5786;DHT22;2919;48.630;9.000;2023-04-01T14:00:55;10.00;99.90
5786;DHT22;2919;48.630;9.000;2023-04-01T14:11:26;10.00;99.90
5786;DHT22;2919;48.630;9.000;2023-04-01T14:14:27;10.20;99.90
5786;DHT22;2919;48.630;9.000;2023-04-01T14:20:07;9.90;99.90
5786;DHT22;2919;48.630;9.000;2023-04-01T14:34:48;10.10;99.90
5786;DHT22;2919;48.630;9.000;2023-04-01T14:37:47;9.90;99.90
5786;DHT22;2919;48.630;9.000;2023-04-01T14:40:40;9.90;99.90
5786;DHT22;2919;48.630;9.000;2023-04-01T14:48:57;10.00;99.90
5786;DHT22;2919;48.630;9.000;2023-04-01T14:54:21;9.90;99.90
5786;DHT22;2919;48.630;9.000;2023-04-01T15:00:09;9.80;99.90
5786;DHT22;2919;48.630;9.000;2023-04-01T15:08:34;10.00;99.90
5786;DHT22;2919;48.630;9.000;2023-04-01T15:17:31;10.00;99.90
5786;DHT22;2919;48.630;9.000;2023-04-01T15:25:42;10.00;99.90
5786;DHT22;2919;48.630;9.000;2023-04-01T15:28:28;10.00;99.90
5786;DHT22;2919;48.630;9.000;2023-04-01T15:36:26;9.80;99.90
5786;DHT22;2919;48.630;9.000;2023-04-01T15:41:36;9.80;99.90
5786;DHT22;2919;48.630;9.000;2023-04-01T15:47:37;9.60;99.90
5786;DHT22;2919;48.630;9.000;2023-04-01T15:55:46;9.30;99.90
5786;DHT22;2919;48.630;9.000;2023-04-01T16:23:37;9.20;99.90
5786;DHT22;2919;48.630;9.000;2023-04-01T16:26:32;9.20;99.90
5786;DHT22;2919;48.630;9.000;2023-04-01T16:29:22;9.20;99.90
5786;DHT22;2919;48.630;9.000;2023-04-01T16:32:17;9.20;99.90
5786;DHT22;2919;48.630;9.000;2023-04-01T16:40:40;9.20;99.90
5786;DHT22;2919;48.630;9.000;2023-04-01T16:45:41;9.20;99.90
5786;DHT22;2919;48.630;9.000;2023-04-01T16:48:13;9.10;99.90
5786;DHT22;2919;48.630;9.000;2023-04-01T16:50:55;9.10;99.90
5786;DHT22;2919;48.630;9.000;2023-04-01T16:53:49;9.10;99.90
5786;DHT22;2919;48.630;9.000;2023-04-01T16:56:23;9.10;99.90
5786;DHT22;2919;48.630;9.000;2023-04-01T17:01:29;9.00;99.90
5786;DHT22;2919;48.630;9.000;2023-04-01T17:04:07;9.00;99.90
5786;DHT22;2919;48.630;9.000;2023-04-01T17:07:06;9.00;99.90
5786;DHT22;2919;48.630;9.000;2023-04-01T17:12:45;8.90;99.90
5786;DHT22;2919;48.630;9.000;2023-04-01T17:21:15;8.80;99.90
5786;DHT22;2919;48.630;9.000;2023-04-01T17:23:51;8.80;99.90
5786;DHT22;2919;48.630;9.000;2023-04-01T17:28:47;8.70;99.90
5786;DHT22;2919;48.630;9.000;2023-04-01T17:34:09;8.70;99.90
5786;DHT22;2919;48.630;9.000;2023-04-01T17:45:30;8.50;99.90
5786;DHT22;2919;48.630;9.000;2023-04-01T17:59:35;8.50;99.90
5786;DHT22;2919;48.630;9.000;2023-04-01T18:22:15;8.10;99.90
5786;DHT22;2919;48.630;9.000;2023-04-01T18:27:44;7.80;99.90
5786;DHT22;2919;48.630;9.000;2023-04-01T18:33:08;7.40;99.90
5786;DHT22;2919;48.630;9.000;2023-04-01T18:35:45;7.30;99.90
5786;DHT22;2919;48.630;9.000;2023-04-01T18:43:30;7.10;99.90
5786;DHT22;2919;48.630;9.000;2023-04-01T18:46:19;7.10;99.90
5786;DHT22;2919;48.630;9.000;2023-04-01T18:49:15;7.10;99.90
5786;DHT22;2919;48.630;9.000;2023-04-01T18:51:54;7.00;99.90
5786;DHT22;2919;48.630;9.000;2023-04-01T18:54:30;6.90;99.90
5786;DHT22;2919;48.630;9.000;2023-04-01T18:57:18;6.90;99.90
5786;DHT22;2919;48.630;9.000;2023-04-01T18:59:51;6.90;99.90
5786;DHT22;2919;48.630;9.000;2023-04-01T19:02:47;6.80;99.90
5786;DHT22;2919;48.630;9.000;2023-04-01T19:05:20;6.80;99.90
5786;DHT22;2919;48.630;9.000;2023-04-01T19:07:51;6.70;99.90
5786;DHT22;2919;48.630;9.000;2023-04-01T19:18:35;6.50;99.90
5786;DHT22;2919;48.630;9.000;2023-04-01T19:21:20;6.50;99.90
5786;DHT22;2919;48.630;9.000;2023-04-01T19:46:30;6.10;99.90
5786;DHT22;2919;48.630;9.000;2023-04-01T19:54:21;6.10;99.90
5786;DHT22;2919;48.630;9.000;2023-04-01T19:59:37;6.20;99.90
5786;DHT22;2919;48.630;9.000;2023-04-01T20:04:45;6.10;99.90
5786;DHT22;2919;48.630;9.000;2023-04-01T20:07:30;6.10;99.90
5786;DHT22;2919;48.630;9.000;2023-04-01T20:15:38;6.10;99.90
5786;DHT22;2919;48.630;9.000;2023-04-01T20:18:21;6.10;99.90
5786;DHT22;2919;48.630;9.000;2023-04-01T20:21:16;6.20;99.90
5786;DHT22;2919;48.630;9.000;2023-04-01T20:26:45;6.30;99.90
5786;DHT22;2919;48.630;9.000;2023-04-01T20:32:19;6.40;99.90
5786;DHT22;2919;48.630;9.000;2023-04-01T20:38:04;6.40;99.90
5786;DHT22;2919;48.630;9.000;2023-04-01T20:43:32;6.40;99.90
5786;DHT22;2919;48.630;9.000;2023-04-01T20:46:19;6.50;99.90
5786;DHT22;2919;48.630;9.000;2023-04-01T20:51:29;6.50;99.90
5786;DHT22;2919;48.630;9.000;2023-04-01T21:19:09;6.60;99.90
5786;DHT22;2919;48.630;9.000;2023-04-01T21:44:13;6.70;99.90
5786;DHT22;2919;48.630;9.000;2023-04-01T21:55:00;6.60;99.90
5786;DHT22;2919;48.630;9.000;2023-04-01T22:06:14;6.60;99.90
5786;DHT22;2919;48.630;9.000;2023-04-01T22:14:33;6.60;99.90
5786;DHT22;2919;48.630;9.000;2023-04-01T22:17:15;6.50;99.90
5786;DHT22;2919;48.630;9.000;2023-04-01T22:19:51;6.50;99.90
5786;DHT22;2919;48.630;9.000;2023-04-01T22:22:25;6.50;99.90
5786;DHT22;2919;48.630;9.000;2023-04-01T22:30:51;6.40;99.90
5786;DHT22;2919;48.630;9.000;2023-04-01T22:38:52;6.30;99.90
5786;DHT22;2919;48.630;9.000;2023-04-01T22:43:52;6.20;99.90
5786;DHT22;2919;48.630;9.000;2023-04-01T22:46:35;6.20;99.90
5786;DHT22;2919;48.630;9.000;2023-04-01T22:54:28;6.00;99.90
5786;DHT22;2919;48.630;9.000;2023-04-01T22:57:00;6.00;99.90
5786;DHT22;2919;48.630;9.000;2023-04-01T22:59:31;6.00;99.90
5786;DHT22;2919;48.630;9.000;2023-04-01T23:02:06;5.90;99.90
5786;DHT22;2919;48.630;9.000;2023-04-01T23:04:38;5.80;99.90
5786;DHT22;2919;48.630;9.000;2023-04-01T23:09:58;5.70;99.90
5786;DHT22;2919;48.630;9.000;2023-04-01T23:12:27;5.70;99.90
5786;DHT22;2919;48.630;9.000;2023-04-01T23:15:01;5.60;99.90
5786;DHT22;2919;48.630;9.000;2023-04-01T23:17:53;5.60;99.90
5786;DHT22;2919;48.630;9.000;2023-04-01T23:20:32;5.60;99.90
5786;DHT22;2919;48.630;9.000;2023-04-01T23:23:41;5.60;99.90
5786;DHT22;2919;48.630;9.000;2023-04-01T23:30:52;5.60;99.90
5786;DHT22;2919;48.630;9.000;2023-04-01T23:33:21;5.60;99.90
5786;DHT22;2919;48.630;9.000;2023-04-01T23:36:09;5.70;99.90
5786;DHT22;2919;48.630;9.000;2023-04-01T23:38:41;5.70;99.90
5786;DHT22;2919;48.630;9.000;2023-04-01T23:41:16;5.70;99.90
5786;DHT22;2919;48.630;9.000;2023-04-01T23:43:44;5.80;99.90
5786;DHT22;2919;48.630;9.000;2023-04-01T23:46:12;5.80;99.90
5786;DHT22;2919;48.630;9.000;2023-04-01T23:48:41;5.80;99.90
5786;DHT22;2919;48.630;9.000;2023-04-01T23:51:21;5.80;99.90
5786;DHT22;2919;48.630;9.000;2023-04-01T23:53:48;5.80;99.90
5786;DHT22;2919;48.630;9.000;2023-04-01T23:56:21;5.70;99.90
5786;DHT22;2919;48.630;9.000;2023-04-01T23:58:49;5.80;99.90
